In Rescue
 
Wind Gusting 00 knots
08
October 07, 2022 2:35 PM EDT
Weather Information
Wind Direction
  350 °
Wind Speed
  08 kt (9 mph)
Wind Gust
  00 kt (0 mph)
Variable Wind
300°
010°
Altimeter
30.27 in
Visibility
10 SM
Temperature
16° C
61° F
Dewpoint
00° C
32° F
Humidity
34%
1hr Rain Fall
00.00 in.
24hr Rain Fall
00.00 in.
Sky Condition
Clear
VFR

METAR KIMS 071835Z AUTO 35008KT 309V019 10SM CLR 16/00 A3027 RMK AO2

FAA Disclaimer: The data displayed is for advisory purposes only and is not to be used for flight planning or operations.